Time;durP1;ratioP1;P1;durP2;ratioP2;P2;SDS_P1;SDS_P2;PMS_P1;PMS_P2;Temp;Humidity;BMP_temperature;BMP_pressure;BME280_temperature;BME280_humidity;BME280_pressure;Samples;Min_cycle;Max_cycle;Signal;HPM_P1;HPM_P2
2023/02/05 00:03:42;;;;;;;;;;;;;;;-1.07;100.00;97518.63;10520551;28;2068;-68
2023/02/05 00:08:44;;;;;;;;;;;;;;;-1.26;100.00;97520.50;10519865;28;2439;-69
2023/02/05 00:13:47;;;;;;;;;;;;;;;-1.46;100.00;97527.81;10518912;28;2908;-68
2023/02/05 00:18:49;;;;;;;;;;;;;;;-1.57;100.00;97530.69;10517261;28;2903;-68
2023/02/05 00:23:52;;;;;;;;;;;;;;;-1.70;100.00;97525.00;10521376;28;3007;-67
2023/02/05 00:28:54;;;;;;;;;;;;;;;-1.74;100.00;97524.47;10521326;28;2418;-68
2023/02/05 00:33:57;;;;;;;;;;;;;;;-1.74;100.00;97515.72;10521894;28;2095;-67
2023/02/05 00:38:59;;;;;;;;;;;;;;;-1.73;100.00;97523.47;10526096;28;3237;-67
2023/02/05 00:44:01;;;;;;;;;;;;;;;-1.69;100.00;97532.75;10529753;28;2433;-68
2023/02/05 00:49:04;;;;;;;;;;;;;;;-1.69;100.00;97538.03;10538185;28;2898;-67
2023/02/05 00:54:06;;;;;;;;;;;;;;;-1.52;100.00;97535.50;10530328;28;2204;-66
2023/02/05 00:59:08;;;;;;;;;;;;;;;-1.44;100.00;97539.03;10529308;28;2915;-67
2023/02/05 01:04:11;;;;;;;;;;;;;;;-1.45;100.00;97539.19;10528130;28;2884;-69
2023/02/05 01:09:13;;;;;;;;;;;;;;;-1.48;100.00;97529.75;10524849;28;2458;-67
2023/02/05 01:14:15;;;;;;;;;;;;;;;-1.58;100.00;97528.22;10522281;28;2902;-67
2023/02/05 01:19:18;;;;;;;;;;;;;;;-1.68;100.00;97523.84;10523253;28;2962;-66
2023/02/05 01:24:20;;;;;;;;;;;;;;;-1.72;100.00;97524.31;10523396;28;2454;-66
2023/02/05 01:29:22;;;;;;;;;;;;;;;-1.63;100.00;97532.13;10523455;28;2081;-68
2023/02/05 01:34:25;;;;;;;;;;;;;;;-1.52;100.00;97514.41;10519084;28;2021;-68
2023/02/05 01:39:27;;;;;;;;;;;;;;;-1.50;100.00;97515.06;10526260;28;2974;-67
2023/02/05 01:44:29;;;;;;;;;;;;;;;-1.53;100.00;97516.19;10518065;28;2528;-67
2023/02/05 01:49:32;;;;;;;;;;;;;;;-1.60;100.00;97509.06;10524837;28;2477;-67
2023/02/05 01:54:34;;;;;;;;;;;;;;;-1.77;100.00;97519.50;10538948;28;2927;-68
2023/02/05 01:59:37;;;;;;;;;;;;;;;-1.75;100.00;97514.91;10523710;28;2097;-67
2023/02/05 02:04:39;;;;;;;;;;;;;;;-1.73;100.00;97523.47;10522504;28;2098;-67
2023/02/05 02:09:41;;;;;;;;;;;;;;;-1.69;100.00;97516.09;10519905;28;2453;-66
2023/02/05 02:14:44;;;;;;;;;;;;;;;-1.75;100.00;97500.91;10520664;28;2094;-67
2023/02/05 02:19:46;;;;;;;;;;;;;;;-1.74;100.00;97492.81;10522357;28;2535;-65
2023/02/05 02:24:49;;;;;;;;;;;;;;;-1.62;100.00;97496.03;10523225;28;2462;-72
2023/02/05 02:29:51;;;;;;;;;;;;;;;-1.47;100.00;97483.94;10524362;28;2123;-70
2023/02/05 02:34:53;;;;;;;;;;;;;;;-1.48;100.00;97476.19;10523074;28;2005;-68
2023/02/05 02:39:56;;;;;;;;;;;;;;;-1.39;100.00;97469.97;10522769;28;2918;-66
2023/02/05 02:44:58;;;;;;;;;;;;;;;-1.39;100.00;97467.34;10526473;28;2911;-67
2023/02/05 02:50:01;;;;;;;;;;;;;;;-1.45;100.00;97466.16;10524762;28;2534;-67
2023/02/05 02:55:04;;;;;;;;;;;;;;;-1.53;100.00;97462.63;10522124;28;2958;-67
2023/02/05 03:00:06;;;;;;;;;;;;;;;-1.55;100.00;97459.31;10528041;28;2506;-68
2023/02/05 03:05:09;;;;;;;;;;;;;;;-1.54;100.00;97476.78;10520646;28;2478;-66
2023/02/05 03:10:11;;;;;;;;;;;;;;;-1.63;100.00;97468.84;10528403;28;2813;-68
2023/02/05 03:15:13;;;;;;;;;;;;;;;-1.59;100.00;97464.09;10525303;28;2418;-66
2023/02/05 03:20:16;;;;;;;;;;;;;;;-1.44;100.00;97451.97;10521968;28;2466;-66
2023/02/05 03:25:18;;;;;;;;;;;;;;;-1.39;100.00;97449.69;10503899;28;2081;-66
2023/02/05 03:30:20;;;;;;;;;;;;;;;-1.31;100.00;97437.53;10530052;28;2867;-66
2023/02/05 03:35:23;;;;;;;;;;;;;;;-1.40;100.00;97426.09;10519575;28;2843;-67
2023/02/05 03:40:25;;;;;;;;;;;;;;;-1.55;100.00;97423.22;10520092;28;2048;-66
2023/02/05 03:45:27;;;;;;;;;;;;;;;-1.66;100.00;97424.31;10515435;28;2965;-67
2023/02/05 03:50:30;;;;;;;;;;;;;;;-1.76;100.00;97420.97;10518209;28;1997;-68
2023/02/05 03:55:32;;;;;;;;;;;;;;;-1.95;100.00;97424.66;10523823;28;2898;-67
2023/02/05 04:00:35;;;;;;;;;;;;;;;-2.00;100.00;97444.53;10521237;28;2568;-67
2023/02/05 04:05:38;;;;;;;;;;;;;;;-2.12;100.00;97448.41;10493929;28;2136;-66
2023/02/05 04:10:40;;;;;;;;;;;;;;;-2.29;100.00;97444.81;10524824;28;2901;-66
2023/02/05 04:15:43;;;;;;;;;;;;;;;-2.32;100.00;97434.59;10529153;28;2792;-67
2023/02/05 04:20:45;;;;;;;;;;;;;;;-2.40;100.00;97431.88;10529171;28;2037;-66
2023/02/05 04:25:47;;;;;;;;;;;;;;;-2.36;100.00;97423.50;10528421;28;2045;-66
2023/02/05 04:30:50;;;;;;;;;;;;;;;-2.39;100.00;97433.53;10527606;28;2107;-66
2023/02/05 04:35:52;;;;;;;;;;;;;;;-2.42;100.00;97420.66;10528467;28;2033;-67
2023/02/05 04:40:54;;;;;;;;;;;;;;;-2.42;100.00;97408.31;10526309;28;2449;-66
2023/02/05 04:45:57;;;;;;;;;;;;;;;-2.38;100.00;97414.94;10526621;28;2891;-67
2023/02/05 04:50:59;;;;;;;;;;;;;;;-2.41;100.00;97415.25;10524396;28;2466;-67
2023/02/05 04:56:01;;;;;;;;;;;;;;;-2.41;100.00;97409.16;10530142;28;2486;-67
2023/02/05 05:01:04;;;;;;;;;;;;;;;-2.34;100.00;97410.22;10523705;28;2981;-66
2023/02/05 05:06:06;;;;;;;;;;;;;;;-2.32;100.00;97414.34;10523506;28;2926;-66
2023/02/05 05:11:08;;;;;;;;;;;;;;;-2.25;100.00;97401.38;10523884;28;2380;-66
2023/02/05 05:16:11;;;;;;;;;;;;;;;-2.20;100.00;97399.94;10524547;28;2907;-68
2023/02/05 05:21:13;;;;;;;;;;;;;;;-2.21;100.00;97395.66;10526769;28;2406;-69
2023/02/05 05:26:16;;;;;;;;;;;;;;;-2.25;100.00;97394.31;10520858;28;2462;-68
2023/02/05 05:31:18;;;;;;;;;;;;;;;-2.21;100.00;97394.84;10513011;28;2829;-67
2023/02/05 05:36:21;;;;;;;;;;;;;;;-2.30;100.00;97404.47;10519973;28;2470;-67
2023/02/05 05:46:43;;;;;;;;;;;;;;;-2.40;100.00;97390.56;10525339;28;2856;-66
2023/02/05 05:51:46;;;;;;;;;;;;;;;-2.52;100.00;97404.97;10522427;28;2441;-66
2023/02/05 05:56:48;;;;;;;;;;;;;;;-2.64;100.00;97411.44;10527099;28;2067;-66
2023/02/05 06:01:50;;;;;;;;;;;;;;;-2.72;100.00;97397.22;10516660;28;2914;-69
2023/02/05 06:06:53;;;;;;;;;;;;;;;-2.66;100.00;97400.25;10527189;28;2549;-74
2023/02/05 06:11:55;;;;;;;;;;;;;;;-2.60;100.00;97404.91;10528366;28;2917;-74
2023/02/05 06:16:57;;;;;;;;;;;;;;;-2.48;100.00;97401.88;10526693;28;2082;-71
2023/02/05 06:22:00;;;;;;;;;;;;;;;-2.32;100.00;97390.63;10524308;28;2450;-67
2023/02/05 06:27:02;;;;;;;;;;;;;;;-2.02;100.00;97391.19;10526873;28;2840;-67
2023/02/05 06:32:05;;;;;;;;;;;;;;;-1.83;100.00;97403.31;10524798;28;2461;-68
2023/02/05 06:37:07;;;;;;;;;;;;;;;-1.74;100.00;97408.47;10519765;28;2844;-68
2023/02/05 06:42:09;;;;;;;;;;;;;;;-1.68;100.00;97413.09;10527877;28;2961;-68
2023/02/05 06:47:12;;;;;;;;;;;;;;;-1.78;100.00;97411.56;10516822;28;2894;-68
2023/02/05 06:52:15;;;;;;;;;;;;;;;-1.87;100.00;97415.16;10508045;28;2116;-68
2023/02/05 06:57:17;;;;;;;;;;;;;;;-1.96;100.00;97415.09;10523829;28;2923;-70
2023/02/05 07:02:20;;;;;;;;;;;;;;;-1.89;100.00;97414.47;10521592;28;2040;-69
2023/02/05 07:07:22;;;;;;;;;;;;;;;-1.75;100.00;97417.34;10517001;28;2418;-71
2023/02/05 07:12:25;;;;;;;;;;;;;;;-1.66;100.00;97420.84;10519885;28;2104;-70
2023/02/05 07:17:27;;;;;;;;;;;;;;;-1.47;100.00;97414.53;10505592;28;2429;-68
2023/02/05 07:22:29;;;;;;;;;;;;;;;-1.50;100.00;97417.50;10522295;28;2860;-70
2023/02/05 07:27:32;;;;;;;;;;;;;;;-1.48;100.00;97413.69;10518421;28;2915;-69
2023/02/05 07:32:34;;;;;;;;;;;;;;;-1.39;100.00;97417.22;10523542;28;2989;-68
2023/02/05 07:37:38;;;;;;;;;;;;;;;-1.44;100.00;97409.78;10520898;28;2092;-69
2023/02/05 07:42:40;;;;;;;;;;;;;;;-1.52;100.00;97401.84;10524707;28;2566;-70
2023/02/05 07:47:42;;;;;;;;;;;;;;;-1.50;100.00;97415.69;10531464;28;2962;-69
2023/02/05 07:52:45;;;;;;;;;;;;;;;-1.45;100.00;97415.22;10525938;28;2383;-68
2023/02/05 07:57:47;;;;;;;;;;;;;;;-1.37;100.00;97412.59;10525144;28;2065;-70
2023/02/05 08:02:50;;;;;;;;;;;;;;;-1.33;100.00;97415.75;10528965;28;2481;-69
2023/02/05 08:07:52;;;;;;;;;;;;;;;-1.29;100.00;97417.91;10527140;28;3356;-69
2023/02/05 08:12:55;;;;;;;;;;;;;;;-1.17;100.00;97421.91;10527757;28;2069;-68
2023/02/05 08:17:57;;;;;;;;;;;;;;;-0.97;100.00;97424.28;10527545;28;2081;-68
2023/02/05 08:23:03;;;;;;;;;;;;;;;-0.67;100.00;97421.06;10524669;28;2907;-68
2023/02/05 08:28:06;;;;;;;;;;;;;;;-0.46;100.00;97414.47;10529301;28;2817;-69
2023/02/05 08:33:08;;;;;;;;;;;;;;;-0.29;100.00;97395.81;10527346;28;2477;-70
2023/02/05 08:38:10;;;;;;;;;;;;;;;-0.23;100.00;97393.50;10528042;28;2856;-69
2023/02/05 08:43:13;;;;;;;;;;;;;;;-0.27;100.00;97387.72;10523868;28;2560;-71
2023/02/05 08:48:15;;;;;;;;;;;;;;;-0.32;100.00;97382.09;10522639;28;2915;-68
2023/02/05 08:53:17;;;;;;;;;;;;;;;-0.23;100.00;97370.56;10525327;28;2474;-70
2023/02/05 08:58:20;;;;;;;;;;;;;;;-0.03;100.00;97353.34;10526272;28;2883;-68
2023/02/05 09:03:22;;;;;;;;;;;;;;;0.34;100.00;97348.44;10537876;28;2992;-68
2023/02/05 09:08:24;;;;;;;;;;;;;;;0.60;100.00;97338.41;10531816;28;2072;-69
2023/02/05 09:13:27;;;;;;;;;;;;;;;0.82;100.00;97326.22;10532173;28;2411;-67
2023/02/05 09:18:29;;;;;;;;;;;;;;;0.83;100.00;97325.25;10525467;28;2813;-68
2023/02/05 09:23:32;;;;;;;;;;;;;;;0.95;100.00;97331.75;10524316;28;2473;-67
2023/02/05 09:28:34;;;;;;;;;;;;;;;0.99;100.00;97321.66;10534428;28;2426;-71
2023/02/05 09:33:36;;;;;;;;;;;;;;;1.05;100.00;97320.97;10529658;28;2469;-68
2023/02/05 09:38:40;;;;;;;;;;;;;;;1.25;100.00;97308.06;10492018;28;1070690;-69
2023/02/05 09:43:42;;;;;;;;;;;;;;;1.47;100.00;97319.66;10542073;28;2879;-69
2023/02/05 09:48:48;;;;;;;;;;;;;;;1.67;100.00;97312.03;10529746;28;2897;-68
2023/02/05 09:53:50;;;;;;;;;;;;;;;1.69;100.00;97305.53;10534071;28;2493;-71
2023/02/05 09:58:53;;;;;;;;;;;;;;;1.87;100.00;97299.91;10517443;28;2414;-73
2023/02/05 10:03:55;;;;;;;;;;;;;;;2.07;100.00;97278.97;10544525;28;2880;-69
2023/02/05 10:08:57;;;;;;;;;;;;;;;2.32;100.00;97271.53;10531590;28;2426;-68
2023/02/05 10:14:00;;;;;;;;;;;;;;;2.36;100.00;97248.94;10525926;28;2891;-68
2023/02/05 10:19:02;;;;;;;;;;;;;;;2.44;100.00;97238.22;10524197;28;2410;-68
2023/02/05 10:24:05;;;;;;;;;;;;;;;2.39;100.00;97230.81;10533124;28;2469;-69
2023/02/05 10:29:07;;;;;;;;;;;;;;;2.51;100.00;97227.66;10524579;28;3033;-69
2023/02/05 10:34:09;;;;;;;;;;;;;;;2.80;100.00;97232.06;10520365;28;2975;-69
2023/02/05 10:39:12;;;;;;;;;;;;;;;3.31;100.00;97210.66;10524114;28;2899;-69
2023/02/05 10:44:14;;;;;;;;;;;;;;;4.11;100.00;97209.31;10518484;28;2836;-68
2023/02/05 10:49:16;;;;;;;;;;;;;;;4.33;100.00;97189.56;10518434;28;2470;-69
2023/02/05 10:54:19;;;;;;;;;;;;;;;4.84;100.00;97184.59;10520553;28;2853;-69
2023/02/05 10:59:21;;;;;;;;;;;;;;;5.21;100.00;97181.50;10520584;28;2923;-69
2023/02/05 11:04:24;;;;;;;;;;;;;;;5.36;100.00;97182.97;10521424;28;2821;-68
2023/02/05 11:09:26;;;;;;;;;;;;;;;5.39;100.00;97177.19;10519908;28;2462;-69
2023/02/05 11:14:28;;;;;;;;;;;;;;;5.12;100.00;97162.25;10521413;28;2904;-68
2023/02/05 11:19:30;;;;;;;;;;;;;;;5.63;100.00;97166.91;10501873;28;2211;-67
2023/02/05 11:24:33;;;;;;;;;;;;;;;4.95;100.00;97166.34;10518000;28;2120;-68
2023/02/05 11:29:35;;;;;;;;;;;;;;;4.88;100.00;97172.47;10522914;28;2864;-68
2023/02/05 11:34:38;;;;;;;;;;;;;;;5.01;100.00;97181.50;10517777;28;2143;-68
2023/02/05 11:39:40;;;;;;;;;;;;;;;4.91;100.00;97170.44;10517815;28;2529;-69
2023/02/05 11:44:42;;;;;;;;;;;;;;;4.85;100.00;97172.06;10522595;28;2137;-68
2023/02/05 11:49:45;;;;;;;;;;;;;;;4.76;100.00;97176.75;10521427;28;2437;-69
2023/02/05 11:54:47;;;;;;;;;;;;;;;4.25;100.00;97187.06;10518654;28;3051;-67
2023/02/05 11:59:50;;;;;;;;;;;;;;;4.16;100.00;97177.63;10512191;28;2013;-68
2023/02/05 12:04:52;;;;;;;;;;;;;;;4.23;100.00;97175.81;10521134;28;2848;-68
2023/02/05 12:09:58;;;;;;;;;;;;;;;3.92;100.00;97181.59;10520053;28;2434;-67
2023/02/05 12:15:00;;;;;;;;;;;;;;;4.04;100.00;97177.38;10513976;28;2948;-69
2023/02/05 12:20:03;;;;;;;;;;;;;;;4.08;100.00;97167.97;10517871;28;2907;-68
2023/02/05 12:25:05;;;;;;;;;;;;;;;4.17;100.00;97163.28;10519051;28;2454;-67
2023/02/05 12:30:07;;;;;;;;;;;;;;;4.29;100.00;97164.38;10522586;28;2869;-69
2023/02/05 12:35:10;;;;;;;;;;;;;;;4.06;100.00;97159.34;10527863;28;2588;-68
2023/02/05 12:40:12;;;;;;;;;;;;;;;3.91;100.00;97156.03;10520647;28;2911;-69
2023/02/05 12:45:14;;;;;;;;;;;;;;;4.06;100.00;97140.72;10528550;28;2465;-68
2023/02/05 12:50:17;;;;;;;;;;;;;;;4.31;100.00;97143.69;10527149;28;3035;-68
2023/02/05 12:55:19;;;;;;;;;;;;;;;4.20;100.00;97139.78;10531624;28;2927;-69
2023/02/05 13:00:23;;;;;;;;;;;;;;;4.10;100.00;97134.00;10525929;28;2422;-69
2023/02/05 13:05:26;;;;;;;;;;;;;;;3.99;100.00;97142.53;10530868;28;2880;-67
2023/02/05 13:10:28;;;;;;;;;;;;;;;3.68;100.00;97146.47;10528309;28;2048;-68
2023/02/05 13:15:31;;;;;;;;;;;;;;;3.90;100.00;97138.41;10525013;28;2884;-68
2023/02/05 13:31:13;;;;;;;;;;;;;;;3.33;100.00;97139.53;10523017;28;2083;-68
2023/02/05 13:36:16;;;;;;;;;;;;;;;2.79;100.00;97150.75;10524613;28;2455;-69
2023/02/05 13:41:18;;;;;;;;;;;;;;;2.68;100.00;97147.59;10527686;28;2854;-68
2023/02/05 13:46:21;;;;;;;;;;;;;;;2.63;100.00;97152.66;10522349;28;2891;-74
2023/02/05 13:51:23;;;;;;;;;;;;;;;2.45;100.00;97146.97;10521038;28;2426;-68
2023/02/05 13:56:25;;;;;;;;;;;;;;;2.51;100.00;97158.66;10523305;28;2490;-68
2023/02/05 14:01:28;;;;;;;;;;;;;;;2.38;100.00;97149.53;10523900;28;2009;-69
2023/02/05 14:06:31;;;;;;;;;;;;;;;2.22;100.00;97148.94;10522396;28;2477;-68
2023/02/05 14:11:33;;;;;;;;;;;;;;;2.16;100.00;97155.81;10519491;28;2513;-68
2023/02/05 14:16:35;;;;;;;;;;;;;;;2.30;100.00;97156.81;10523982;28;2072;-72
2023/02/05 14:21:38;;;;;;;;;;;;;;;2.34;100.00;97158.06;10532921;28;3013;-69
2023/02/05 14:26:41;;;;;;;;;;;;;;;2.48;100.00;97157.19;10524944;28;2005;-67
2023/02/05 14:31:43;;;;;;;;;;;;;;;2.53;100.00;97152.13;10546523;28;2410;-67
2023/02/05 14:36:46;;;;;;;;;;;;;;;2.50;100.00;97144.56;10521442;28;2469;-67
2023/02/05 14:41:49;;;;;;;;;;;;;;;2.49;100.00;97145.59;10522429;28;2438;-71
2023/02/05 14:46:52;;;;;;;;;;;;;;;2.47;100.00;97142.28;10526468;28;2558;-68
2023/02/05 14:51:58;;;;;;;;;;;;;;;2.34;100.00;97144.78;10525752;28;2931;-67
2023/02/05 14:57:01;;;;;;;;;;;;;;;2.31;100.00;97140.69;10521267;28;2457;-68
2023/02/05 15:02:03;;;;;;;;;;;;;;;2.35;100.00;97135.81;10524105;28;2184;-69
2023/02/05 15:07:06;;;;;;;;;;;;;;;2.55;100.00;97147.47;10522902;28;2847;-68
2023/02/05 15:12:08;;;;;;;;;;;;;;;2.31;100.00;97147.84;10524734;28;2001;-68
2023/02/05 15:17:12;;;;;;;;;;;;;;;2.31;100.00;97143.34;10529826;28;2853;-69
2023/02/05 15:22:15;;;;;;;;;;;;;;;2.30;100.00;97140.91;10522317;28;2188;-69
2023/02/05 15:27:17;;;;;;;;;;;;;;;2.07;100.00;97149.81;10525205;28;2868;-69
2023/02/05 15:32:19;;;;;;;;;;;;;;;1.77;100.00;97156.97;10521592;28;2922;-68
2023/02/05 15:37:22;;;;;;;;;;;;;;;1.71;100.00;97165.66;10526741;28;2878;-69
2023/02/05 15:42:24;;;;;;;;;;;;;;;1.78;100.00;97163.09;10521912;28;2887;-68
2023/02/05 15:47:28;;;;;;;;;;;;;;;1.71;100.00;97170.16;10512109;28;2859;-68
2023/02/05 15:52:30;;;;;;;;;;;;;;;1.53;100.00;97178.50;10521138;28;2084;-69
2023/02/05 15:57:33;;;;;;;;;;;;;;;1.36;100.00;97180.47;10525061;28;2414;-70
2023/02/05 16:02:35;;;;;;;;;;;;;;;1.15;100.00;97177.72;10522360;28;2395;-68
2023/02/05 16:07:38;;;;;;;;;;;;;;;1.10;100.00;97180.06;10522482;28;2939;-69
2023/02/05 16:12:41;;;;;;;;;;;;;;;0.92;100.00;97183.84;10527935;28;2038;-69
2023/02/05 16:17:44;;;;;;;;;;;;;;;1.02;100.00;97181.81;10529220;28;2454;-68
2023/02/05 16:22:47;;;;;;;;;;;;;;;0.96;100.00;97194.94;10529314;28;2541;-68
2023/02/05 16:27:49;;;;;;;;;;;;;;;0.82;100.00;97189.38;10527661;28;2977;-69
2023/02/05 16:32:51;;;;;;;;;;;;;;;0.77;100.00;97196.25;10538309;28;2469;-68
2023/02/05 16:37:53;;;;;;;;;;;;;;;0.65;100.00;97202.94;10531434;28;2128;-69
2023/02/05 16:42:56;;;;;;;;;;;;;;;0.64;100.00;97188.06;10526639;28;2465;-69
2023/02/05 16:47:58;;;;;;;;;;;;;;;0.45;100.00;97202.56;10520494;28;2508;-72
2023/02/05 16:53:00;;;;;;;;;;;;;;;0.50;100.00;97200.19;10524934;28;2088;-68
2023/02/05 16:58:03;;;;;;;;;;;;;;;0.57;100.00;97197.69;10530649;28;2585;-70
2023/02/05 17:03:05;;;;;;;;;;;;;;;0.63;100.00;97202.28;10519539;28;2867;-68
2023/02/05 17:08:07;;;;;;;;;;;;;;;0.62;100.00;97211.22;10537100;28;2867;-69
2023/02/05 17:13:10;;;;;;;;;;;;;;;0.64;100.00;97207.41;10532201;28;2468;-68
2023/02/05 17:18:12;;;;;;;;;;;;;;;0.58;100.00;97194.88;10528977;28;2032;-68
2023/02/05 17:23:14;;;;;;;;;;;;;;;0.51;100.00;97201.88;10524518;28;2895;-72
2023/02/05 17:28:17;;;;;;;;;;;;;;;0.59;100.00;97191.22;10527087;28;2498;-74
2023/02/05 17:33:19;;;;;;;;;;;;;;;0.54;100.00;97209.44;10525947;28;2465;-74
2023/02/05 17:38:22;;;;;;;;;;;;;;;0.52;100.00;97212.28;10528228;28;2859;-70
2023/02/05 17:43:24;;;;;;;;;;;;;;;0.56;100.00;97214.56;10528247;28;2478;-71
2023/02/05 17:48:27;;;;;;;;;;;;;;;0.48;100.00;97207.50;10523687;28;2891;-72
2023/02/05 17:53:29;;;;;;;;;;;;;;;0.51;100.00;97215.09;10532661;28;2906;-72
2023/02/05 17:58:32;;;;;;;;;;;;;;;0.47;100.00;97216.44;10523390;28;2880;-71
2023/02/05 18:03:35;;;;;;;;;;;;;;;0.49;100.00;97209.97;10522318;28;2499;-68
2023/02/05 18:08:37;;;;;;;;;;;;;;;0.58;100.00;97202.00;10523750;28;2064;-72
2023/02/05 18:13:39;;;;;;;;;;;;;;;0.68;100.00;97191.97;10517604;28;2934;-70
2023/02/05 18:18:42;;;;;;;;;;;;;;;0.77;100.00;97188.28;10531749;28;2129;-69
2023/02/05 18:23:44;;;;;;;;;;;;;;;0.87;100.00;97202.09;10502830;28;3152;-68
2023/02/05 18:28:46;;;;;;;;;;;;;;;1.03;100.00;97199.31;10532760;27;2805;-69
2023/02/05 18:33:50;;;;;;;;;;;;;;;1.09;100.00;97205.75;10525689;28;3187;-69
2023/02/05 18:38:52;;;;;;;;;;;;;;;1.03;100.00;97209.09;10520792;28;2262;-70
2023/02/05 18:43:55;;;;;;;;;;;;;;;0.82;100.00;97205.25;10522788;28;3172;-69
2023/02/05 18:48:57;;;;;;;;;;;;;;;0.73;100.00;97193.09;10530341;28;3184;-71
2023/02/05 18:53:59;;;;;;;;;;;;;;;0.56;100.00;97203.97;10521604;28;2326;-70
2023/02/05 18:59:04;;;;;;;;;;;;;;;0.59;100.00;97193.06;10521031;28;2310;-69
2023/02/05 19:04:07;;;;;;;;;;;;;;;0.56;100.00;97185.44;10523377;28;2366;-70
2023/02/05 19:09:10;;;;;;;;;;;;;;;0.56;100.00;97182.81;10514884;28;2770;-69
2023/02/05 19:14:12;;;;;;;;;;;;;;;0.33;100.00;97191.56;10520490;28;2353;-70
2023/02/05 19:19:14;;;;;;;;;;;;;;;0.28;100.00;97201.84;10532492;28;2448;-72
2023/02/05 19:24:18;;;;;;;;;;;;;;;0.27;100.00;97205.47;10521859;28;2668;-70
2023/02/05 19:29:20;;;;;;;;;;;;;;;0.35;100.00;97220.47;10523196;28;2727;-69
2023/02/05 19:34:23;;;;;;;;;;;;;;;0.42;100.00;97224.91;10523639;28;2817;-69
2023/02/05 19:39:25;;;;;;;;;;;;;;;0.40;100.00;97234.84;10524365;28;2754;-69
2023/02/05 19:44:29;;;;;;;;;;;;;;;0.34;100.00;97243.47;10531698;28;2742;-69
2023/02/05 19:49:32;;;;;;;;;;;;;;;0.34;100.00;97243.47;10535868;28;2703;-68
2023/02/05 19:54:34;;;;;;;;;;;;;;;0.26;100.00;97241.69;10527366;28;2371;-69
2023/02/05 19:59:36;;;;;;;;;;;;;;;0.25;100.00;97245.34;10510884;28;2800;-69
2023/02/05 20:04:39;;;;;;;;;;;;;;;0.35;100.00;97254.88;10528774;28;2317;-68
2023/02/05 20:09:41;;;;;;;;;;;;;;;0.21;100.00;97264.34;10524933;28;3202;-70
2023/02/05 20:14:44;;;;;;;;;;;;;;;0.26;100.00;97256.75;10534581;28;3174;-67
2023/02/05 20:19:46;;;;;;;;;;;;;;;0.37;100.00;97260.81;10525296;28;3184;-67
2023/02/05 20:24:49;;;;;;;;;;;;;;;0.30;100.00;97263.31;10531067;28;3232;-70
2023/02/05 20:35:11;;;;;;;;;;;;;;;0.12;100.00;97275.94;10529557;28;3176;-69
2023/02/05 20:40:13;;;;;;;;;;;;;;;0.30;100.00;97270.44;10487318;28;2381;-70
2023/02/05 20:45:15;;;;;;;;;;;;;;;0.40;100.00;97273.69;10503096;28;2698;-70
2023/02/05 20:50:18;;;;;;;;;;;;;;;0.32;100.00;97297.53;10484585;28;2754;-71
2023/02/05 20:55:20;;;;;;;;;;;;;;;0.21;100.00;97298.75;10484736;28;3293;-71
2023/02/05 21:00:25;;;;;;;;;;;;;;;0.28;100.00;97296.22;10490281;28;2331;-68
2023/02/05 21:05:27;;;;;;;;;;;;;;;0.28;100.00;97299.69;10482904;28;2686;-70
2023/02/05 21:10:30;;;;;;;;;;;;;;;0.21;100.00;97317.25;10491887;28;3189;-77
2023/02/05 21:15:33;;;;;;;;;;;;;;;0.08;100.00;97331.00;10491743;28;2349;-71
2023/02/05 21:20:35;;;;;;;;;;;;;;;0.16;100.00;97349.50;10482145;28;2753;-71
2023/02/05 21:25:38;;;;;;;;;;;;;;;0.08;100.00;97348.69;10480379;28;2745;-69
2023/02/05 21:30:41;;;;;;;;;;;;;;;0.12;100.00;97371.13;10483430;28;2307;-69
2023/02/05 21:35:44;;;;;;;;;;;;;;;0.04;100.00;97381.75;10491022;28;3180;-69
2023/02/05 21:40:46;;;;;;;;;;;;;;;-0.03;100.00;97379.78;10527541;28;2409;-69
2023/02/05 21:45:48;;;;;;;;;;;;;;;0.03;100.00;97380.09;10527541;28;3252;-69
2023/02/05 21:50:51;;;;;;;;;;;;;;;0.10;100.00;97384.53;10525996;28;2939;-70
2023/02/05 21:55:54;;;;;;;;;;;;;;;0.02;100.00;97389.84;10524802;28;2360;-69
2023/02/05 22:00:56;;;;;;;;;;;;;;;0.08;100.00;97391.00;10529156;28;3121;-68
2023/02/05 22:05:59;;;;;;;;;;;;;;;0.06;100.00;97391.16;10525940;28;3264;-70
2023/02/05 22:11:02;;;;;;;;;;;;;;;-0.15;100.00;97391.69;10522413;28;3177;-68
2023/02/05 22:16:04;;;;;;;;;;;;;;;-0.07;100.00;97383.72;10525897;28;3220;-68
2023/02/05 22:21:07;;;;;;;;;;;;;;;-0.08;100.00;97397.13;10522123;28;2742;-70
2023/02/05 22:26:09;;;;;;;;;;;;;;;-0.15;100.00;97399.59;10509830;28;2718;-68
2023/02/05 22:31:11;;;;;;;;;;;;;;;-0.31;100.00;97397.81;10530903;28;2357;-69
2023/02/05 22:36:14;;;;;;;;;;;;;;;-0.34;100.00;97402.59;10531407;28;3134;-68
2023/02/05 22:41:16;;;;;;;;;;;;;;;-0.33;100.00;97401.59;10521752;28;3580;-68
2023/02/05 22:46:18;;;;;;;;;;;;;;;-0.35;100.00;97406.22;10525532;28;2692;-68
2023/02/05 22:51:21;;;;;;;;;;;;;;;-0.45;100.00;97410.84;10524332;28;2762;-68
2023/02/05 22:56:23;;;;;;;;;;;;;;;-0.51;100.00;97411.47;10521520;28;2332;-70
2023/02/05 23:01:26;;;;;;;;;;;;;;;-0.59;100.00;97410.50;10522371;28;2679;-68
2023/02/05 23:06:29;;;;;;;;;;;;;;;-0.59;100.00;97410.50;10522563;28;2735;-68
2023/02/05 23:11:31;;;;;;;;;;;;;;;-0.69;100.00;97409.84;10523234;28;2330;-69
2023/02/05 23:16:33;;;;;;;;;;;;;;;-0.58;100.00;97420.06;10525687;28;2780;-70
2023/02/05 23:21:36;;;;;;;;;;;;;;;-0.64;100.00;97417.25;10521441;28;3141;-69
2023/02/05 23:26:40;;;;;;;;;;;;;;;-0.76;100.00;97419.41;10526367;28;2749;-69
2023/02/05 23:31:42;;;;;;;;;;;;;;;-0.94;100.00;97426.63;10528676;28;3203;-70
2023/02/05 23:36:45;;;;;;;;;;;;;;;-1.11;100.00;97431.81;10520867;28;2706;-70
2023/02/05 23:41:47;;;;;;;;;;;;;;;-1.25;100.00;97437.72;10518783;28;2767;-69
2023/02/05 23:46:50;;;;;;;;;;;;;;;-1.33;100.00;97447.44;10520672;28;3198;-68
2023/02/05 23:51:52;;;;;;;;;;;;;;;-1.27;100.00;97460.81;10525376;28;2357;-69
2023/02/05 23:56:54;;;;;;;;;;;;;;;-1.27;100.00;97468.72;10527535;28;3268;-68
